sensor_id;sensor_type;location;lat;lon;timestamp;pressure;altitude;pressure_sealevel;temperature
70533;BMP180;58088;51.186;17.130;2024-03-25T00:00:33;98705.40;;;9.54
70533;BMP180;58088;51.186;17.130;2024-03-25T00:03:00;98703.60;;;9.56
70533;BMP180;58088;51.186;17.130;2024-03-25T00:05:27;98699.60;;;9.54
70533;BMP180;58088;51.186;17.130;2024-03-25T00:07:54;98703.00;;;9.60
70533;BMP180;58088;51.186;17.130;2024-03-25T00:10:20;98698.20;;;9.56
70533;BMP180;58088;51.186;17.130;2024-03-25T00:12:47;98704.20;;;9.60
70533;BMP180;58088;51.186;17.130;2024-03-25T00:15:19;98699.40;;;9.60
70533;BMP180;58088;51.186;17.130;2024-03-25T00:17:49;98698.40;;;9.60
70533;BMP180;58088;51.186;17.130;2024-03-25T00:20:16;98699.40;;;9.60
70533;BMP180;58088;51.186;17.130;2024-03-25T00:22:42;98692.60;;;9.60
70533;BMP180;58088;51.186;17.130;2024-03-25T00:25:08;98696.80;;;9.60
70533;BMP180;58088;51.186;17.130;2024-03-25T00:27:35;98696.40;;;9.64
70533;BMP180;58088;51.186;17.130;2024-03-25T00:30:01;98691.00;;;9.62
70533;BMP180;58088;51.186;17.130;2024-03-25T00:32:28;98691.00;;;9.60
70533;BMP180;58088;51.186;17.130;2024-03-25T00:34:54;98688.40;;;9.68
70533;BMP180;58088;51.186;17.130;2024-03-25T00:37:21;98690.60;;;9.70
70533;BMP180;58088;51.186;17.130;2024-03-25T00:39:47;98687.80;;;9.70
70533;BMP180;58088;51.186;17.130;2024-03-25T00:42:13;98690.20;;;9.62
70533;BMP180;58088;51.186;17.130;2024-03-25T00:44:39;98691.60;;;9.68
70533;BMP180;58088;51.186;17.130;2024-03-25T00:47:05;98690.00;;;9.60
70533;BMP180;58088;51.186;17.130;2024-03-25T00:49:31;98692.00;;;9.60
70533;BMP180;58088;51.186;17.130;2024-03-25T00:51:57;98692.60;;;9.60
70533;BMP180;58088;51.186;17.130;2024-03-25T00:54:24;98691.40;;;9.60
70533;BMP180;58088;51.186;17.130;2024-03-25T00:56:50;98690.80;;;9.60
70533;BMP180;58088;51.186;17.130;2024-03-25T00:59:17;98694.60;;;9.60
70533;BMP180;58088;51.186;17.130;2024-03-25T01:01:43;98695.20;;;9.50
70533;BMP180;58088;51.186;17.130;2024-03-25T01:04:10;98696.60;;;9.44
70533;BMP180;58088;51.186;17.130;2024-03-25T01:06:36;98696.60;;;9.30
70533;BMP180;58088;51.186;17.130;2024-03-25T01:09:03;98700.20;;;9.20
70533;BMP180;58088;51.186;17.130;2024-03-25T01:11:30;98703.00;;;9.00
70533;BMP180;58088;51.186;17.130;2024-03-25T01:13:56;98707.80;;;8.90
70533;BMP180;58088;51.186;17.130;2024-03-25T01:16:23;98708.40;;;8.80
70533;BMP180;58088;51.186;17.130;2024-03-25T01:18:49;98710.20;;;8.68
70533;BMP180;58088;51.186;17.130;2024-03-25T01:21:16;98710.80;;;8.60
70533;BMP180;58088;51.186;17.130;2024-03-25T01:23:42;98710.80;;;8.60
70533;BMP180;58088;51.186;17.130;2024-03-25T01:26:08;98705.60;;;8.50
70533;BMP180;58088;51.186;17.130;2024-03-25T01:28:35;98700.40;;;8.40
70533;BMP180;58088;51.186;17.130;2024-03-25T01:31:01;98702.20;;;8.40
70533;BMP180;58088;51.186;17.130;2024-03-25T01:33:27;98702.60;;;8.32
70533;BMP180;58088;51.186;17.130;2024-03-25T01:35:53;98690.20;;;8.30
70533;BMP180;58088;51.186;17.130;2024-03-25T01:38:22;98688.40;;;8.30
70533;BMP180;58088;51.186;17.130;2024-03-25T01:40:48;98693.00;;;8.30
70533;BMP180;58088;51.186;17.130;2024-03-25T01:43:15;98682.00;;;8.30
70533;BMP180;58088;51.186;17.130;2024-03-25T01:45:42;98680.40;;;8.30
70533;BMP180;58088;51.186;17.130;2024-03-25T01:48:09;98679.40;;;8.30
70533;BMP180;58088;51.186;17.130;2024-03-25T01:50:41;98671.00;;;8.36
70533;BMP180;58088;51.186;17.130;2024-03-25T01:53:09;98673.40;;;8.40
70533;BMP180;58088;51.186;17.130;2024-03-25T01:55:38;98674.20;;;8.38
70533;BMP180;58088;51.186;17.130;2024-03-25T01:58:08;98666.80;;;8.40
70533;BMP180;58088;51.186;17.130;2024-03-25T02:00:35;98665.80;;;8.32
70533;BMP180;58088;51.186;17.130;2024-03-25T02:03:22;98667.00;;;8.40
70533;BMP180;58088;51.186;17.130;2024-03-25T02:05:58;98665.40;;;8.40
70533;BMP180;58088;51.186;17.130;2024-03-25T02:08:27;98662.40;;;8.30
70533;BMP180;58088;51.186;17.130;2024-03-25T02:10:58;98660.40;;;8.30
70533;BMP180;58088;51.186;17.130;2024-03-25T02:13:25;98659.40;;;8.30
70533;BMP180;58088;51.186;17.130;2024-03-25T02:15:52;98663.80;;;8.30
70533;BMP180;58088;51.186;17.130;2024-03-25T02:18:21;98658.80;;;8.30
70533;BMP180;58088;51.186;17.130;2024-03-25T02:20:48;98669.40;;;8.36
70533;BMP180;58088;51.186;17.130;2024-03-25T02:23:14;98662.60;;;8.30
70533;BMP180;58088;51.186;17.130;2024-03-25T02:25:43;98658.20;;;8.30
70533;BMP180;58088;51.186;17.130;2024-03-25T02:28:09;98663.60;;;8.20
70533;BMP180;58088;51.186;17.130;2024-03-25T02:30:35;98662.00;;;8.20
70533;BMP180;58088;51.186;17.130;2024-03-25T02:33:03;98662.40;;;8.20
70533;BMP180;58088;51.186;17.130;2024-03-25T02:35:30;98665.60;;;8.20
70533;BMP180;58088;51.186;17.130;2024-03-25T02:37:56;98669.60;;;8.20
70533;BMP180;58088;51.186;17.130;2024-03-25T02:40:23;98669.40;;;8.20
70533;BMP180;58088;51.186;17.130;2024-03-25T02:42:49;98668.20;;;8.30
70533;BMP180;58088;51.186;17.130;2024-03-25T02:45:15;98676.80;;;8.30
70533;BMP180;58088;51.186;17.130;2024-03-25T02:47:43;98682.20;;;8.40
70533;BMP180;58088;51.186;17.130;2024-03-25T02:50:09;98677.40;;;8.40
70533;BMP180;58088;51.186;17.130;2024-03-25T02:52:35;98678.20;;;8.40
70533;BMP180;58088;51.186;17.130;2024-03-25T02:55:01;98674.20;;;8.40
70533;BMP180;58088;51.186;17.130;2024-03-25T02:57:28;98674.00;;;8.50
70533;BMP180;58088;51.186;17.130;2024-03-25T02:59:54;98672.00;;;8.50
70533;BMP180;58088;51.186;17.130;2024-03-25T03:02:20;98672.40;;;8.50
70533;BMP180;58088;51.186;17.130;2024-03-25T03:04:46;98668.40;;;8.54
70533;BMP180;58088;51.186;17.130;2024-03-25T03:07:13;98668.40;;;8.52
70533;BMP180;58088;51.186;17.130;2024-03-25T03:09:40;98670.60;;;8.56
70533;BMP180;58088;51.186;17.130;2024-03-25T03:12:06;98675.20;;;8.60
70533;BMP180;58088;51.186;17.130;2024-03-25T03:14:33;98672.40;;;8.60
70533;BMP180;58088;51.186;17.130;2024-03-25T03:16:59;98676.20;;;8.60
70533;BMP180;58088;51.186;17.130;2024-03-25T03:19:27;98670.60;;;8.60
70533;BMP180;58088;51.186;17.130;2024-03-25T03:21:53;98674.20;;;8.60
70533;BMP180;58088;51.186;17.130;2024-03-25T03:24:19;98674.60;;;8.60
70533;BMP180;58088;51.186;17.130;2024-03-25T03:26:46;98677.00;;;8.60
70533;BMP180;58088;51.186;17.130;2024-03-25T03:29:12;98675.60;;;8.60
70533;BMP180;58088;51.186;17.130;2024-03-25T03:31:38;98676.40;;;8.60
70533;BMP180;58088;51.186;17.130;2024-03-25T03:34:04;98684.60;;;8.60
70533;BMP180;58088;51.186;17.130;2024-03-25T03:36:30;98682.20;;;8.56
70533;BMP180;58088;51.186;17.130;2024-03-25T03:38:56;98685.20;;;8.50
70533;BMP180;58088;51.186;17.130;2024-03-25T03:41:22;98685.00;;;8.50
70533;BMP180;58088;51.186;17.130;2024-03-25T03:43:48;98681.80;;;8.50
70533;BMP180;58088;51.186;17.130;2024-03-25T03:46:15;98689.60;;;8.40
70533;BMP180;58088;51.186;17.130;2024-03-25T03:48:41;98684.20;;;8.40
70533;BMP180;58088;51.186;17.130;2024-03-25T03:51:10;98685.40;;;8.40
70533;BMP180;58088;51.186;17.130;2024-03-25T03:53:36;98687.80;;;8.36
70533;BMP180;58088;51.186;17.130;2024-03-25T03:56:04;98697.20;;;8.34
70533;BMP180;58088;51.186;17.130;2024-03-25T03:58:34;98687.80;;;8.30
70533;BMP180;58088;51.186;17.130;2024-03-25T04:01:01;98687.60;;;8.22
70533;BMP180;58088;51.186;17.130;2024-03-25T04:03:27;98687.60;;;8.20
70533;BMP180;58088;51.186;17.130;2024-03-25T04:05:53;98693.40;;;8.20
70533;BMP180;58088;51.186;17.130;2024-03-25T04:08:19;98693.40;;;8.10
70533;BMP180;58088;51.186;17.130;2024-03-25T04:10:46;98691.80;;;8.10
70533;BMP180;58088;51.186;17.130;2024-03-25T04:13:20;98699.60;;;8.10
70533;BMP180;58088;51.186;17.130;2024-03-25T04:15:46;98695.00;;;8.00
70533;BMP180;58088;51.186;17.130;2024-03-25T04:18:12;98691.20;;;8.00
70533;BMP180;58088;51.186;17.130;2024-03-25T04:20:41;98689.40;;;8.00
70533;BMP180;58088;51.186;17.130;2024-03-25T04:23:08;98694.20;;;8.00
70533;BMP180;58088;51.186;17.130;2024-03-25T04:25:35;98695.00;;;8.00
70533;BMP180;58088;51.186;17.130;2024-03-25T04:28:05;98695.20;;;8.00
70533;BMP180;58088;51.186;17.130;2024-03-25T04:30:33;98694.80;;;8.00
70533;BMP180;58088;51.186;17.130;2024-03-25T04:33:00;98696.40;;;8.08
70533;BMP180;58088;51.186;17.130;2024-03-25T04:35:26;98697.60;;;8.10
70533;BMP180;58088;51.186;17.130;2024-03-25T04:37:53;98698.20;;;8.10
70533;BMP180;58088;51.186;17.130;2024-03-25T04:40:21;98698.20;;;8.10
70533;BMP180;58088;51.186;17.130;2024-03-25T04:42:48;98693.00;;;8.16
70533;BMP180;58088;51.186;17.130;2024-03-25T04:45:14;98700.40;;;8.20
70533;BMP180;58088;51.186;17.130;2024-03-25T04:47:41;98703.20;;;8.20
70533;BMP180;58088;51.186;17.130;2024-03-25T04:50:08;98706.00;;;8.20
70533;BMP180;58088;51.186;17.130;2024-03-25T04:52:35;98706.60;;;8.20
70533;BMP180;58088;51.186;17.130;2024-03-25T04:55:01;98707.20;;;8.20
70533;BMP180;58088;51.186;17.130;2024-03-25T04:57:28;98704.00;;;8.20
70533;BMP180;58088;51.186;17.130;2024-03-25T04:59:54;98709.80;;;8.20
70533;BMP180;58088;51.186;17.130;2024-03-25T05:02:20;98712.00;;;8.28
70533;BMP180;58088;51.186;17.130;2024-03-25T05:04:47;98716.80;;;8.30
70533;BMP180;58088;51.186;17.130;2024-03-25T05:07:13;98714.40;;;8.20
70533;BMP180;58088;51.186;17.130;2024-03-25T05:09:40;98720.00;;;8.20
70533;BMP180;58088;51.186;17.130;2024-03-25T05:12:07;98720.00;;;8.20
70533;BMP180;58088;51.186;17.130;2024-03-25T05:14:33;98720.00;;;8.20
70533;BMP180;58088;51.186;17.130;2024-03-25T05:16:59;98721.80;;;8.30
70533;BMP180;58088;51.186;17.130;2024-03-25T05:19:27;98728.60;;;8.30
70533;BMP180;58088;51.186;17.130;2024-03-25T05:21:53;98725.60;;;8.30
70533;BMP180;58088;51.186;17.130;2024-03-25T05:24:19;98720.40;;;8.30
70533;BMP180;58088;51.186;17.130;2024-03-25T05:26:45;98725.20;;;8.40
70533;BMP180;58088;51.186;17.130;2024-03-25T05:29:12;98727.80;;;8.40
70533;BMP180;58088;51.186;17.130;2024-03-25T05:31:39;98730.00;;;8.40
70533;BMP180;58088;51.186;17.130;2024-03-25T05:34:21;98735.00;;;8.40
70533;BMP180;58088;51.186;17.130;2024-03-25T05:36:48;98735.60;;;8.40
70533;BMP180;58088;51.186;17.130;2024-03-25T05:39:14;98735.40;;;8.40
70533;BMP180;58088;51.186;17.130;2024-03-25T05:41:40;98746.80;;;8.40
70533;BMP180;58088;51.186;17.130;2024-03-25T05:44:06;98744.00;;;8.40
70533;BMP180;58088;51.186;17.130;2024-03-25T05:46:32;98751.00;;;8.30
70533;BMP180;58088;51.186;17.130;2024-03-25T05:49:03;98756.00;;;8.30
70533;BMP180;58088;51.186;17.130;2024-03-25T05:51:33;98767.40;;;8.30
70533;BMP180;58088;51.186;17.130;2024-03-25T05:53:59;98773.40;;;8.20
70533;BMP180;58088;51.186;17.130;2024-03-25T05:56:26;98782.40;;;8.10
70533;BMP180;58088;51.186;17.130;2024-03-25T05:59:00;98779.00;;;8.00
70533;BMP180;58088;51.186;17.130;2024-03-25T06:01:27;98782.20;;;7.90
70533;BMP180;58088;51.186;17.130;2024-03-25T06:03:53;98791.00;;;7.88
70533;BMP180;58088;51.186;17.130;2024-03-25T06:06:20;98790.40;;;7.80
70533;BMP180;58088;51.186;17.130;2024-03-25T06:08:47;98798.00;;;7.80
70533;BMP180;58088;51.186;17.130;2024-03-25T06:11:13;98800.40;;;7.80
70533;BMP180;58088;51.186;17.130;2024-03-25T06:13:39;98796.20;;;7.88
70533;BMP180;58088;51.186;17.130;2024-03-25T06:16:05;98806.40;;;7.80
70533;BMP180;58088;51.186;17.130;2024-03-25T06:18:32;98806.80;;;7.80
70533;BMP180;58088;51.186;17.130;2024-03-25T06:20:58;98813.80;;;7.80
70533;BMP180;58088;51.186;17.130;2024-03-25T06:23:29;98815.20;;;7.80
70533;BMP180;58088;51.186;17.130;2024-03-25T06:25:56;98819.00;;;7.80
70533;BMP180;58088;51.186;17.130;2024-03-25T06:28:23;98812.80;;;7.80
70533;BMP180;58088;51.186;17.130;2024-03-25T06:30:50;98817.40;;;7.90
70533;BMP180;58088;51.186;17.130;2024-03-25T06:33:36;98817.20;;;7.90
70533;BMP180;58088;51.186;17.130;2024-03-25T06:36:21;98821.60;;;7.86
70533;BMP180;58088;51.186;17.130;2024-03-25T06:38:48;98828.80;;;7.80
70533;BMP180;58088;51.186;17.130;2024-03-25T06:41:14;98834.20;;;7.88
70533;BMP180;58088;51.186;17.130;2024-03-25T06:43:41;98836.20;;;7.90
70533;BMP180;58088;51.186;17.130;2024-03-25T06:46:08;98842.00;;;7.86
70533;BMP180;58088;51.186;17.130;2024-03-25T06:48:34;98850.40;;;7.90
70533;BMP180;58088;51.186;17.130;2024-03-25T06:51:01;98844.00;;;7.90
70533;BMP180;58088;51.186;17.130;2024-03-25T06:53:30;98850.20;;;7.90
70533;BMP180;58088;51.186;17.130;2024-03-25T06:55:59;98858.60;;;7.94
70533;BMP180;58088;51.186;17.130;2024-03-25T06:58:28;98860.00;;;8.00
70533;BMP180;58088;51.186;17.130;2024-03-25T07:00:56;98865.40;;;8.00
70533;BMP180;58088;51.186;17.130;2024-03-25T07:03:29;98867.40;;;8.10
70533;BMP180;58088;51.186;17.130;2024-03-25T07:05:56;98864.20;;;8.08
70533;BMP180;58088;51.186;17.130;2024-03-25T07:08:23;98867.00;;;8.00
70533;BMP180;58088;51.186;17.130;2024-03-25T07:10:49;98876.60;;;8.00
70533;BMP180;58088;51.186;17.130;2024-03-25T07:13:18;98879.00;;;7.94
70533;BMP180;58088;51.186;17.130;2024-03-25T07:15:45;98879.20;;;8.00
70533;BMP180;58088;51.186;17.130;2024-03-25T07:18:12;98882.40;;;8.00
70533;BMP180;58088;51.186;17.130;2024-03-25T07:20:42;98889.60;;;8.10
70533;BMP180;58088;51.186;17.130;2024-03-25T07:23:10;98891.20;;;8.10
70533;BMP180;58088;51.186;17.130;2024-03-25T07:25:36;98898.20;;;8.10
70533;BMP180;58088;51.186;17.130;2024-03-25T07:28:04;98892.20;;;8.18
70533;BMP180;58088;51.186;17.130;2024-03-25T07:30:30;98892.80;;;8.20
70533;BMP180;58088;51.186;17.130;2024-03-25T07:33:00;98904.80;;;8.22
70533;BMP180;58088;51.186;17.130;2024-03-25T07:35:26;98904.40;;;8.30
70533;BMP180;58088;51.186;17.130;2024-03-25T07:37:52;98904.20;;;8.30
70533;BMP180;58088;51.186;17.130;2024-03-25T07:40:19;98900.60;;;8.30
70533;BMP180;58088;51.186;17.130;2024-03-25T07:42:47;98907.40;;;8.30
70533;BMP180;58088;51.186;17.130;2024-03-25T07:45:15;98909.20;;;8.30
70533;BMP180;58088;51.186;17.130;2024-03-25T07:47:41;98912.60;;;8.40
70533;BMP180;58088;51.186;17.130;2024-03-25T07:50:09;98916.00;;;8.50
70533;BMP180;58088;51.186;17.130;2024-03-25T07:52:35;98919.60;;;8.60
70533;BMP180;58088;51.186;17.130;2024-03-25T07:55:08;98924.80;;;8.70
70533;BMP180;58088;51.186;17.130;2024-03-25T07:57:34;98924.00;;;8.80
70533;BMP180;58088;51.186;17.130;2024-03-25T08:00:00;98923.40;;;8.80
70533;BMP180;58088;51.186;17.130;2024-03-25T08:02:27;98923.20;;;8.90
70533;BMP180;58088;51.186;17.130;2024-03-25T08:04:53;98928.00;;;8.90
70533;BMP180;58088;51.186;17.130;2024-03-25T08:07:19;98934.60;;;9.00
70533;BMP180;58088;51.186;17.130;2024-03-25T08:09:45;98931.80;;;9.10
70533;BMP180;58088;51.186;17.130;2024-03-25T08:12:11;98940.40;;;9.10
70533;BMP180;58088;51.186;17.130;2024-03-25T08:14:38;98939.60;;;9.16
70533;BMP180;58088;51.186;17.130;2024-03-25T08:17:04;98940.60;;;9.20
70533;BMP180;58088;51.186;17.130;2024-03-25T08:19:30;98947.00;;;9.30
70533;BMP180;58088;51.186;17.130;2024-03-25T08:21:57;98950.00;;;9.20
70533;BMP180;58088;51.186;17.130;2024-03-25T08:24:24;98952.40;;;9.26
70533;BMP180;58088;51.186;17.130;2024-03-25T08:26:50;98953.60;;;9.22
70533;BMP180;58088;51.186;17.130;2024-03-25T08:29:16;98961.60;;;9.20
70533;BMP180;58088;51.186;17.130;2024-03-25T08:31:43;98969.60;;;9.30
70533;BMP180;58088;51.186;17.130;2024-03-25T08:34:10;98964.60;;;9.30
70533;BMP180;58088;51.186;17.130;2024-03-25T08:36:36;98974.00;;;9.30
70533;BMP180;58088;51.186;17.130;2024-03-25T08:39:02;98971.40;;;9.40
70533;BMP180;58088;51.186;17.130;2024-03-25T08:41:30;98970.40;;;9.40
70533;BMP180;58088;51.186;17.130;2024-03-25T08:43:56;98977.60;;;9.40
70533;BMP180;58088;51.186;17.130;2024-03-25T08:46:23;98979.20;;;9.38
70533;BMP180;58088;51.186;17.130;2024-03-25T08:48:49;98982.40;;;9.30
70533;BMP180;58088;51.186;17.130;2024-03-25T08:51:16;98985.80;;;9.30
70533;BMP180;58088;51.186;17.130;2024-03-25T08:53:42;98995.20;;;9.30
70533;BMP180;58088;51.186;17.130;2024-03-25T08:56:09;98998.80;;;9.30
70533;BMP180;58088;51.186;17.130;2024-03-25T08:58:35;98997.20;;;9.30
70533;BMP180;58088;51.186;17.130;2024-03-25T09:01:01;99004.20;;;9.30
70533;BMP180;58088;51.186;17.130;2024-03-25T09:03:28;99000.80;;;9.30
70533;BMP180;58088;51.186;17.130;2024-03-25T09:05:56;99001.00;;;9.38
70533;BMP180;58088;51.186;17.130;2024-03-25T09:08:22;99004.00;;;9.42
70533;BMP180;58088;51.186;17.130;2024-03-25T09:10:48;99005.60;;;9.50
70533;BMP180;58088;51.186;17.130;2024-03-25T09:13:31;99014.00;;;9.50
70533;BMP180;58088;51.186;17.130;2024-03-25T09:15:58;99009.00;;;9.54
70533;BMP180;58088;51.186;17.130;2024-03-25T09:18:24;99016.20;;;9.60
70533;BMP180;58088;51.186;17.130;2024-03-25T09:20:52;99015.60;;;9.60
70533;BMP180;58088;51.186;17.130;2024-03-25T09:23:19;99022.40;;;9.60
70533;BMP180;58088;51.186;17.130;2024-03-25T09:25:53;99025.60;;;9.66
70533;BMP180;58088;51.186;17.130;2024-03-25T09:28:20;99030.00;;;9.70
70533;BMP180;58088;51.186;17.130;2024-03-25T09:30:48;99027.00;;;9.70
70533;BMP180;58088;51.186;17.130;2024-03-25T09:33:15;99034.40;;;9.70
70533;BMP180;58088;51.186;17.130;2024-03-25T09:35:41;99040.60;;;9.70
70533;BMP180;58088;51.186;17.130;2024-03-25T09:38:08;99043.40;;;9.70
70533;BMP180;58088;51.186;17.130;2024-03-25T09:40:40;99039.20;;;9.60
70533;BMP180;58088;51.186;17.130;2024-03-25T09:43:23;99049.80;;;9.50
70533;BMP180;58088;51.186;17.130;2024-03-25T09:45:52;99055.20;;;9.50
70533;BMP180;58088;51.186;17.130;2024-03-25T09:48:21;99054.00;;;9.50
70533;BMP180;58088;51.186;17.130;2024-03-25T09:50:49;99059.60;;;9.50
70533;BMP180;58088;51.186;17.130;2024-03-25T09:53:16;99055.60;;;9.60
70533;BMP180;58088;51.186;17.130;2024-03-25T09:55:43;99055.80;;;9.70
70533;BMP180;58088;51.186;17.130;2024-03-25T09:58:10;99056.80;;;9.80
70533;BMP180;58088;51.186;17.130;2024-03-25T10:00:36;99056.80;;;9.90
70533;BMP180;58088;51.186;17.130;2024-03-25T10:03:02;99060.00;;;10.00
70533;BMP180;58088;51.186;17.130;2024-03-25T10:05:29;99058.80;;;10.10
70533;BMP180;58088;51.186;17.130;2024-03-25T10:07:55;99065.60;;;10.20
70533;BMP180;58088;51.186;17.130;2024-03-25T10:10:22;99063.00;;;10.30
70533;BMP180;58088;51.186;17.130;2024-03-25T10:12:48;99069.60;;;10.30
70533;BMP180;58088;51.186;17.130;2024-03-25T10:15:17;99071.60;;;10.30
70533;BMP180;58088;51.186;17.130;2024-03-25T10:17:44;99074.40;;;10.40
70533;BMP180;58088;51.186;17.130;2024-03-25T10:20:14;99074.00;;;10.40
70533;BMP180;58088;51.186;17.130;2024-03-25T10:22:45;99083.00;;;10.40
70533;BMP180;58088;51.186;17.130;2024-03-25T10:25:30;99077.80;;;10.50
70533;BMP180;58088;51.186;17.130;2024-03-25T10:27:59;99083.80;;;10.60
70533;BMP180;58088;51.186;17.130;2024-03-25T10:30:29;99085.40;;;10.60
70533;BMP180;58088;51.186;17.130;2024-03-25T10:33:04;99085.20;;;10.62
70533;BMP180;58088;51.186;17.130;2024-03-25T10:35:33;99080.20;;;10.84
70533;BMP180;58088;51.186;17.130;2024-03-25T10:38:02;99089.60;;;11.00
70533;BMP180;58088;51.186;17.130;2024-03-25T10:40:32;99086.40;;;11.10
70533;BMP180;58088;51.186;17.130;2024-03-25T10:43:04;99078.00;;;11.12
70533;BMP180;58088;51.186;17.130;2024-03-25T10:45:42;99079.80;;;11.10
70533;BMP180;58088;51.186;17.130;2024-03-25T10:48:18;99085.20;;;11.00
70533;BMP180;58088;51.186;17.130;2024-03-25T10:50:46;99085.80;;;10.98
70533;BMP180;58088;51.186;17.130;2024-03-25T10:53:18;99094.80;;;10.90
70533;BMP180;58088;51.186;17.130;2024-03-25T10:55:47;99099.60;;;10.90
70533;BMP180;58088;51.186;17.130;2024-03-25T10:58:22;99102.20;;;10.80
70533;BMP180;58088;51.186;17.130;2024-03-25T11:00:53;99105.40;;;10.90
70533;BMP180;58088;51.186;17.130;2024-03-25T11:03:25;99107.20;;;11.00
70533;BMP180;58088;51.186;17.130;2024-03-25T11:05:52;99104.60;;;11.00
70533;BMP180;58088;51.186;17.130;2024-03-25T11:08:18;99111.60;;;10.90
70533;BMP180;58088;51.186;17.130;2024-03-25T11:10:47;99110.20;;;10.76
70533;BMP180;58088;51.186;17.130;2024-03-25T11:13:18;99117.60;;;10.64
70533;BMP180;58088;51.186;17.130;2024-03-25T11:15:50;99117.40;;;10.60
70533;BMP180;58088;51.186;17.130;2024-03-25T11:18:24;99113.60;;;10.60
70533;BMP180;58088;51.186;17.130;2024-03-25T11:24:12;99116.40;;;10.70
70533;BMP180;58088;51.186;17.130;2024-03-25T11:26:43;99114.60;;;10.80
70533;BMP180;58088;51.186;17.130;2024-03-25T11:29:10;99105.80;;;11.00
70533;BMP180;58088;51.186;17.130;2024-03-25T11:31:39;99102.00;;;11.20
70533;BMP180;58088;51.186;17.130;2024-03-25T11:34:08;99107.80;;;11.40
70533;BMP180;58088;51.186;17.130;2024-03-25T11:36:36;99103.80;;;11.40
70533;BMP180;58088;51.186;17.130;2024-03-25T11:39:05;99107.00;;;11.60
70533;BMP180;58088;51.186;17.130;2024-03-25T11:41:40;99107.80;;;11.80
70533;BMP180;58088;51.186;17.130;2024-03-25T11:44:12;99111.40;;;11.80
70533;BMP180;58088;51.186;17.130;2024-03-25T11:46:45;99115.00;;;11.70
70533;BMP180;58088;51.186;17.130;2024-03-25T11:49:16;99111.00;;;11.70
70533;BMP180;58088;51.186;17.130;2024-03-25T11:51:46;99108.00;;;11.80
70533;BMP180;58088;51.186;17.130;2024-03-25T11:54:14;99107.60;;;11.80
70533;BMP180;58088;51.186;17.130;2024-03-25T11:56:43;99100.80;;;11.90
70533;BMP180;58088;51.186;17.130;2024-03-25T11:59:11;99105.40;;;11.86
70533;BMP180;58088;51.186;17.130;2024-03-25T12:01:39;99101.80;;;11.80
70533;BMP180;58088;51.186;17.130;2024-03-25T12:04:16;99107.40;;;11.84
70533;BMP180;58088;51.186;17.130;2024-03-25T12:06:42;99107.80;;;11.90
70533;BMP180;58088;51.186;17.130;2024-03-25T12:09:11;99114.80;;;11.90
70533;BMP180;58088;51.186;17.130;2024-03-25T12:11:56;99120.20;;;11.66
70533;BMP180;58088;51.186;17.130;2024-03-25T12:14:23;99121.20;;;11.40
70533;BMP180;58088;51.186;17.130;2024-03-25T12:16:49;99119.80;;;11.30
70533;BMP180;58088;51.186;17.130;2024-03-25T12:19:20;99122.60;;;11.10
70533;BMP180;58088;51.186;17.130;2024-03-25T12:21:47;99126.20;;;11.00
70533;BMP180;58088;51.186;17.130;2024-03-25T12:24:14;99128.20;;;11.10
70533;BMP180;58088;51.186;17.130;2024-03-25T12:26:40;99119.20;;;11.20
70533;BMP180;58088;51.186;17.130;2024-03-25T12:29:10;99120.80;;;11.30
70533;BMP180;58088;51.186;17.130;2024-03-25T12:31:36;99111.60;;;11.40
70533;BMP180;58088;51.186;17.130;2024-03-25T12:34:12;99121.40;;;11.50
70533;BMP180;58088;51.186;17.130;2024-03-25T12:36:39;99117.20;;;11.60
70533;BMP180;58088;51.186;17.130;2024-03-25T12:39:05;99111.60;;;11.70
70533;BMP180;58088;51.186;17.130;2024-03-25T12:41:32;99115.00;;;11.70
70533;BMP180;58088;51.186;17.130;2024-03-25T12:43:59;99115.20;;;11.80
70533;BMP180;58088;51.186;17.130;2024-03-25T12:46:25;99120.60;;;11.78
70533;BMP180;58088;51.186;17.130;2024-03-25T12:48:51;99121.80;;;11.68
70533;BMP180;58088;51.186;17.130;2024-03-25T12:51:17;99123.40;;;11.64
70533;BMP180;58088;51.186;17.130;2024-03-25T12:53:44;99117.60;;;11.80
70533;BMP180;58088;51.186;17.130;2024-03-25T12:56:10;99118.80;;;11.82
70533;BMP180;58088;51.186;17.130;2024-03-25T12:58:37;99118.80;;;11.80
70533;BMP180;58088;51.186;17.130;2024-03-25T13:01:03;99123.80;;;11.80
70533;BMP180;58088;51.186;17.130;2024-03-25T13:03:30;99124.20;;;11.90
70533;BMP180;58088;51.186;17.130;2024-03-25T13:05:56;99123.60;;;11.86
70533;BMP180;58088;51.186;17.130;2024-03-25T13:08:24;99135.20;;;11.72
70533;BMP180;58088;51.186;17.130;2024-03-25T13:10:51;99133.00;;;11.70
70533;BMP180;58088;51.186;17.130;2024-03-25T13:13:18;99131.40;;;11.70
70533;BMP180;58088;51.186;17.130;2024-03-25T13:15:44;99130.20;;;11.62
70533;BMP180;58088;51.186;17.130;2024-03-25T13:18:11;99129.00;;;11.58
70533;BMP180;58088;51.186;17.130;2024-03-25T13:20:38;99131.20;;;11.60
70533;BMP180;58088;51.186;17.130;2024-03-25T13:23:04;99132.80;;;11.80
70533;BMP180;58088;51.186;17.130;2024-03-25T13:25:30;99134.40;;;11.80
70533;BMP180;58088;51.186;17.130;2024-03-25T13:27:56;99131.40;;;11.90
70533;BMP180;58088;51.186;17.130;2024-03-25T13:30:23;99123.40;;;12.00
70533;BMP180;58088;51.186;17.130;2024-03-25T13:32:51;99121.40;;;12.00
70533;BMP180;58088;51.186;17.130;2024-03-25T13:35:17;99128.60;;;12.10
70533;BMP180;58088;51.186;17.130;2024-03-25T13:37:44;99125.60;;;12.28
70533;BMP180;58088;51.186;17.130;2024-03-25T13:40:10;99124.80;;;12.20
70533;BMP180;58088;51.186;17.130;2024-03-25T13:42:40;99134.60;;;12.04
70533;BMP180;58088;51.186;17.130;2024-03-25T13:45:07;99138.40;;;12.00
70533;BMP180;58088;51.186;17.130;2024-03-25T13:47:33;99131.00;;;11.90
70533;BMP180;58088;51.186;17.130;2024-03-25T13:50:04;99136.80;;;11.80
70533;BMP180;58088;51.186;17.130;2024-03-25T13:52:33;99139.00;;;11.80
70533;BMP180;58088;51.186;17.130;2024-03-25T13:55:00;99139.80;;;11.90
70533;BMP180;58088;51.186;17.130;2024-03-25T13:57:26;99145.60;;;11.80
70533;BMP180;58088;51.186;17.130;2024-03-25T13:59:53;99145.00;;;11.70
70533;BMP180;58088;51.186;17.130;2024-03-25T14:02:19;99149.00;;;11.70
70533;BMP180;58088;51.186;17.130;2024-03-25T14:04:46;99144.60;;;11.70
70533;BMP180;58088;51.186;17.130;2024-03-25T14:07:12;99147.20;;;11.80
70533;BMP180;58088;51.186;17.130;2024-03-25T14:09:38;99146.60;;;11.80